CYIO

Pond Inlet Airport

Pond Inlet, Canada
METAR CYIO 251900Z 05007KT 40SM FEW030 SCT250 M02/M08 A2959 RMK SC1CI4 SC TR SLP028
Observed Flight Rules
Sep-25 @ 19:00 UTC (18 minutes ago) Visual Flight Rules
Wind Visibility Clouds
50° at 7 knots 40 miles
  • Few at 3,000' AGL
  • Scattered at 25,000' AGL
Temperatures Readings
Current -2°C / 28°F
Dewpoint -8°C / 18°F
Humidity 64%
Altimeter 29.59" Hg
Pressure 1002.8 hPa
Elevation 57
METAR CYIO 251900Z 05007KT 40SM FEW030 SCT250 M02/M08 A2959 RMK SC1CI4 SC TR SLP028
Observed Flight Rules
Sep-25 @ 19:00 UTC
(18 minutes ago)
VFR
Wind Visibility
50° at 7 knots 40 miles
Clouds
  • Few at 3,000' AGL
  • Scattered at 25,000' AGL
Temperature Dewpoint
-2°C / 28°F -8°C / 18°F
Humidity Altimeter Pressure
64% 29.59" Hg 1002.8 hPa